sensor_id;sensor_type;location;lat;lon;timestamp;P1;durP1;ratioP1;P2;durP2;ratioP2
22191;SDS011;11261;52.456;10.850;2023-05-07T00:01:15;12.32;;;6.57;;
22191;SDS011;11261;52.456;10.850;2023-05-07T00:03:45;10.13;;;6.20;;
22191;SDS011;11261;52.456;10.850;2023-05-07T00:06:14;8.75;;;5.40;;
22191;SDS011;11261;52.456;10.850;2023-05-07T00:08:43;9.23;;;7.05;;
22191;SDS011;11261;52.456;10.850;2023-05-07T00:11:12;9.57;;;5.57;;
22191;SDS011;11261;52.456;10.850;2023-05-07T00:13:41;8.63;;;6.18;;
22191;SDS011;11261;52.456;10.850;2023-05-07T00:16:09;10.70;;;6.63;;
22191;SDS011;11261;52.456;10.850;2023-05-07T00:18:38;9.23;;;5.93;;
22191;SDS011;11261;52.456;10.850;2023-05-07T00:21:06;9.93;;;5.40;;
22191;SDS011;11261;52.456;10.850;2023-05-07T00:23:34;10.55;;;5.35;;
22191;SDS011;11261;52.456;10.850;2023-05-07T00:26:02;8.10;;;6.13;;
22191;SDS011;11261;52.456;10.850;2023-05-07T00:28:32;11.18;;;5.90;;
22191;SDS011;11261;52.456;10.850;2023-05-07T00:31:01;9.43;;;6.18;;
22191;SDS011;11261;52.456;10.850;2023-05-07T00:33:29;9.07;;;6.18;;
22191;SDS011;11261;52.456;10.850;2023-05-07T00:35:57;9.65;;;5.80;;
22191;SDS011;11261;52.456;10.850;2023-05-07T00:38:27;8.35;;;6.38;;
22191;SDS011;11261;52.456;10.850;2023-05-07T00:40:55;7.70;;;5.97;;
22191;SDS011;11261;52.456;10.850;2023-05-07T00:43:24;9.15;;;6.22;;
22191;SDS011;11261;52.456;10.850;2023-05-07T00:45:55;10.18;;;5.95;;
22191;SDS011;11261;52.456;10.850;2023-05-07T00:48:23;10.27;;;6.05;;
22191;SDS011;11261;52.456;10.850;2023-05-07T00:50:53;11.63;;;7.85;;
22191;SDS011;11261;52.456;10.850;2023-05-07T00:53:21;10.18;;;7.15;;
22191;SDS011;11261;52.456;10.850;2023-05-07T00:55:50;9.35;;;6.50;;
22191;SDS011;11261;52.456;10.850;2023-05-07T00:58:18;9.27;;;6.28;;
22191;SDS011;11261;52.456;10.850;2023-05-07T01:00:48;8.93;;;5.70;;
22191;SDS011;11261;52.456;10.850;2023-05-07T01:03:18;8.05;;;5.78;;
22191;SDS011;11261;52.456;10.850;2023-05-07T01:05:47;8.45;;;5.55;;
22191;SDS011;11261;52.456;10.850;2023-05-07T01:08:18;9.68;;;5.90;;
22191;SDS011;11261;52.456;10.850;2023-05-07T01:10:47;8.98;;;6.28;;
22191;SDS011;11261;52.456;10.850;2023-05-07T01:13:16;8.55;;;5.80;;
22191;SDS011;11261;52.456;10.850;2023-05-07T01:15:47;9.68;;;5.22;;
22191;SDS011;11261;52.456;10.850;2023-05-07T01:18:15;7.53;;;4.78;;
22191;SDS011;11261;52.456;10.850;2023-05-07T01:20:45;7.57;;;5.60;;
22191;SDS011;11261;52.456;10.850;2023-05-07T01:23:14;8.90;;;5.50;;
22191;SDS011;11261;52.456;10.850;2023-05-07T01:25:47;8.02;;;5.63;;
22191;SDS011;11261;52.456;10.850;2023-05-07T01:28:19;8.10;;;6.15;;
22191;SDS011;11261;52.456;10.850;2023-05-07T01:30:55;9.02;;;5.32;;
22191;SDS011;11261;52.456;10.850;2023-05-07T01:33:29;7.10;;;5.68;;
22191;SDS011;11261;52.456;10.850;2023-05-07T01:35:59;9.18;;;5.43;;
22191;SDS011;11261;52.456;10.850;2023-05-07T01:38:31;6.60;;;4.40;;
22191;SDS011;11261;52.456;10.850;2023-05-07T01:41:00;6.88;;;5.38;;
22191;SDS011;11261;52.456;10.850;2023-05-07T01:43:29;7.88;;;5.07;;
22191;SDS011;11261;52.456;10.850;2023-05-07T01:45:58;7.05;;;4.70;;
22191;SDS011;11261;52.456;10.850;2023-05-07T01:48:29;7.35;;;5.03;;
22191;SDS011;11261;52.456;10.850;2023-05-07T01:50:58;5.43;;;4.75;;
22191;SDS011;11261;52.456;10.850;2023-05-07T01:53:27;7.07;;;5.47;;
22191;SDS011;11261;52.456;10.850;2023-05-07T01:55:56;8.32;;;6.30;;
22191;SDS011;11261;52.456;10.850;2023-05-07T01:58:25;6.80;;;5.68;;
22191;SDS011;11261;52.456;10.850;2023-05-07T02:00:53;5.85;;;4.90;;
22191;SDS011;11261;52.456;10.850;2023-05-07T02:03:21;7.13;;;5.28;;
22191;SDS011;11261;52.456;10.850;2023-05-07T02:05:49;6.10;;;5.13;;
22191;SDS011;11261;52.456;10.850;2023-05-07T02:08:17;7.82;;;4.93;;
22191;SDS011;11261;52.456;10.850;2023-05-07T02:10:46;6.28;;;4.95;;
22191;SDS011;11261;52.456;10.850;2023-05-07T02:13:16;7.40;;;4.88;;
22191;SDS011;11261;52.456;10.850;2023-05-07T02:15:44;6.07;;;5.15;;
22191;SDS011;11261;52.456;10.850;2023-05-07T02:18:17;8.15;;;5.80;;
22191;SDS011;11261;52.456;10.850;2023-05-07T02:20:45;7.65;;;6.07;;
22191;SDS011;11261;52.456;10.850;2023-05-07T02:23:13;8.95;;;7.18;;
22191;SDS011;11261;52.456;10.850;2023-05-07T02:25:41;7.55;;;6.43;;
22191;SDS011;11261;52.456;10.850;2023-05-07T02:28:10;8.57;;;6.07;;
22191;SDS011;11261;52.456;10.850;2023-05-07T02:30:39;10.18;;;6.53;;
22191;SDS011;11261;52.456;10.850;2023-05-07T02:33:07;8.88;;;6.82;;
22191;SDS011;11261;52.456;10.850;2023-05-07T02:35:38;9.25;;;7.03;;
22191;SDS011;11261;52.456;10.850;2023-05-07T02:38:07;10.82;;;7.43;;
22191;SDS011;11261;52.456;10.850;2023-05-07T02:40:36;9.95;;;7.22;;
22191;SDS011;11261;52.456;10.850;2023-05-07T02:43:06;10.93;;;8.10;;
22191;SDS011;11261;52.456;10.850;2023-05-07T02:45:34;8.48;;;6.18;;
22191;SDS011;11261;52.456;10.850;2023-05-07T02:48:05;9.45;;;7.30;;
22191;SDS011;11261;52.456;10.850;2023-05-07T02:50:34;8.65;;;6.68;;
22191;SDS011;11261;52.456;10.850;2023-05-07T02:53:02;8.60;;;7.18;;
22191;SDS011;11261;52.456;10.850;2023-05-07T02:55:31;9.55;;;8.02;;
22191;SDS011;11261;52.456;10.850;2023-05-07T02:57:59;8.70;;;6.63;;
22191;SDS011;11261;52.456;10.850;2023-05-07T03:00:27;10.02;;;7.93;;
22191;SDS011;11261;52.456;10.850;2023-05-07T03:02:55;9.55;;;6.80;;
22191;SDS011;11261;52.456;10.850;2023-05-07T03:05:25;9.23;;;8.25;;
22191;SDS011;11261;52.456;10.850;2023-05-07T03:07:54;8.63;;;6.32;;
22191;SDS011;11261;52.456;10.850;2023-05-07T03:10:22;9.68;;;7.43;;
22191;SDS011;11261;52.456;10.850;2023-05-07T03:12:50;9.25;;;7.38;;
22191;SDS011;11261;52.456;10.850;2023-05-07T03:15:19;8.18;;;6.88;;
22191;SDS011;11261;52.456;10.850;2023-05-07T03:17:48;10.70;;;7.45;;
22191;SDS011;11261;52.456;10.850;2023-05-07T03:20:16;9.57;;;7.10;;
22191;SDS011;11261;52.456;10.850;2023-05-07T03:22:46;10.40;;;7.53;;
22191;SDS011;11261;52.456;10.850;2023-05-07T03:25:14;8.27;;;6.72;;
22191;SDS011;11261;52.456;10.850;2023-05-07T03:27:43;9.55;;;7.05;;
22191;SDS011;11261;52.456;10.850;2023-05-07T03:30:11;7.57;;;5.95;;
22191;SDS011;11261;52.456;10.850;2023-05-07T03:32:40;7.80;;;6.10;;
22191;SDS011;11261;52.456;10.850;2023-05-07T03:35:08;7.22;;;5.00;;
22191;SDS011;11261;52.456;10.850;2023-05-07T03:37:37;7.15;;;6.22;;
22191;SDS011;11261;52.456;10.850;2023-05-07T03:40:08;8.18;;;6.32;;
22191;SDS011;11261;52.456;10.850;2023-05-07T03:42:39;8.00;;;6.55;;
22191;SDS011;11261;52.456;10.850;2023-05-07T03:45:08;7.75;;;5.85;;
22191;SDS011;11261;52.456;10.850;2023-05-07T03:47:36;6.95;;;6.22;;
22191;SDS011;11261;52.456;10.850;2023-05-07T03:50:05;7.28;;;6.03;;
22191;SDS011;11261;52.456;10.850;2023-05-07T03:52:34;8.43;;;5.90;;
22191;SDS011;11261;52.456;10.850;2023-05-07T03:55:02;6.60;;;5.47;;
22191;SDS011;11261;52.456;10.850;2023-05-07T03:57:33;7.10;;;5.45;;
22191;SDS011;11261;52.456;10.850;2023-05-07T04:00:02;7.47;;;6.70;;
22191;SDS011;11261;52.456;10.850;2023-05-07T04:02:32;6.38;;;5.75;;
22191;SDS011;11261;52.456;10.850;2023-05-07T04:05:00;6.28;;;5.47;;
22191;SDS011;11261;52.456;10.850;2023-05-07T04:07:29;8.68;;;6.65;;
22191;SDS011;11261;52.456;10.850;2023-05-07T04:09:57;6.75;;;4.88;;
22191;SDS011;11261;52.456;10.850;2023-05-07T04:12:25;6.53;;;5.20;;
22191;SDS011;11261;52.456;10.850;2023-05-07T04:14:55;8.85;;;7.95;;
22191;SDS011;11261;52.456;10.850;2023-05-07T04:17:23;8.88;;;6.18;;
22191;SDS011;11261;52.456;10.850;2023-05-07T04:19:52;8.95;;;6.45;;
22191;SDS011;11261;52.456;10.850;2023-05-07T04:22:20;10.07;;;7.55;;
22191;SDS011;11261;52.456;10.850;2023-05-07T04:24:48;8.98;;;6.88;;
22191;SDS011;11261;52.456;10.850;2023-05-07T04:27:16;8.60;;;7.40;;
22191;SDS011;11261;52.456;10.850;2023-05-07T04:29:44;10.80;;;6.55;;
22191;SDS011;11261;52.456;10.850;2023-05-07T04:32:15;8.55;;;6.43;;
22191;SDS011;11261;52.456;10.850;2023-05-07T04:34:43;9.88;;;7.05;;
22191;SDS011;11261;52.456;10.850;2023-05-07T04:37:12;9.05;;;7.25;;
22191;SDS011;11261;52.456;10.850;2023-05-07T04:39:40;11.13;;;7.75;;
22191;SDS011;11261;52.456;10.850;2023-05-07T04:42:08;10.27;;;8.15;;
22191;SDS011;11261;52.456;10.850;2023-05-07T04:44:37;10.68;;;8.65;;
22191;SDS011;11261;52.456;10.850;2023-05-07T04:47:05;10.52;;;8.70;;
22191;SDS011;11261;52.456;10.850;2023-05-07T04:49:34;11.32;;;8.63;;
22191;SDS011;11261;52.456;10.850;2023-05-07T04:52:03;10.65;;;8.85;;
22191;SDS011;11261;52.456;10.850;2023-05-07T04:54:32;11.43;;;8.68;;
22191;SDS011;11261;52.456;10.850;2023-05-07T04:57:00;10.32;;;6.55;;
22191;SDS011;11261;52.456;10.850;2023-05-07T04:59:30;10.52;;;7.57;;
22191;SDS011;11261;52.456;10.850;2023-05-07T05:01:59;9.75;;;6.88;;
22191;SDS011;11261;52.456;10.850;2023-05-07T05:04:28;9.80;;;7.65;;
22191;SDS011;11261;52.456;10.850;2023-05-07T05:06:57;9.65;;;7.93;;
22191;SDS011;11261;52.456;10.850;2023-05-07T05:09:26;10.77;;;6.72;;
22191;SDS011;11261;52.456;10.850;2023-05-07T05:11:54;10.10;;;8.10;;
22191;SDS011;11261;52.456;10.850;2023-05-07T05:14:22;11.50;;;7.65;;
22191;SDS011;11261;52.456;10.850;2023-05-07T05:16:50;10.68;;;6.78;;
22191;SDS011;11261;52.456;10.850;2023-05-07T05:19:18;10.70;;;7.68;;
22191;SDS011;11261;52.456;10.850;2023-05-07T05:21:46;10.07;;;7.82;;
22191;SDS011;11261;52.456;10.850;2023-05-07T05:24:16;8.88;;;6.95;;
22191;SDS011;11261;52.456;10.850;2023-05-07T05:26:44;9.07;;;6.82;;
22191;SDS011;11261;52.456;10.850;2023-05-07T05:29:12;10.05;;;7.63;;
22191;SDS011;11261;52.456;10.850;2023-05-07T05:31:41;11.05;;;8.40;;
22191;SDS011;11261;52.456;10.850;2023-05-07T05:34:09;14.10;;;9.00;;
22191;SDS011;11261;52.456;10.850;2023-05-07T05:36:37;10.52;;;7.13;;
22191;SDS011;11261;52.456;10.850;2023-05-07T05:39:05;11.23;;;7.95;;
22191;SDS011;11261;52.456;10.850;2023-05-07T05:41:36;9.85;;;7.40;;
22191;SDS011;11261;52.456;10.850;2023-05-07T05:44:04;9.05;;;6.43;;
22191;SDS011;11261;52.456;10.850;2023-05-07T05:46:33;10.75;;;8.38;;
22191;SDS011;11261;52.456;10.850;2023-05-07T05:49:02;11.27;;;9.10;;
22191;SDS011;11261;52.456;10.850;2023-05-07T05:51:30;11.85;;;7.22;;
22191;SDS011;11261;52.456;10.850;2023-05-07T05:53:59;11.32;;;7.55;;
22191;SDS011;11261;52.456;10.850;2023-05-07T05:56:27;11.45;;;7.82;;
22191;SDS011;11261;52.456;10.850;2023-05-07T05:58:57;10.27;;;7.22;;
22191;SDS011;11261;52.456;10.850;2023-05-07T06:01:25;12.50;;;8.43;;
22191;SDS011;11261;52.456;10.850;2023-05-07T06:03:53;9.82;;;7.10;;
22191;SDS011;11261;52.456;10.850;2023-05-07T06:06:22;10.05;;;7.03;;
22191;SDS011;11261;52.456;10.850;2023-05-07T06:08:50;11.57;;;7.53;;
22191;SDS011;11261;52.456;10.850;2023-05-07T06:11:18;10.93;;;7.05;;
22191;SDS011;11261;52.456;10.850;2023-05-07T06:13:47;11.07;;;9.10;;
22191;SDS011;11261;52.456;10.850;2023-05-07T06:16:16;10.07;;;7.90;;
22191;SDS011;11261;52.456;10.850;2023-05-07T06:18:44;10.38;;;8.02;;
22191;SDS011;11261;52.456;10.850;2023-05-07T06:21:13;11.43;;;7.57;;
22191;SDS011;11261;52.456;10.850;2023-05-07T06:23:41;12.23;;;8.82;;
22191;SDS011;11261;52.456;10.850;2023-05-07T06:26:09;11.15;;;6.90;;
22191;SDS011;11261;52.456;10.850;2023-05-07T06:28:37;11.85;;;8.25;;
22191;SDS011;11261;52.456;10.850;2023-05-07T06:31:12;9.65;;;7.32;;
22191;SDS011;11261;52.456;10.850;2023-05-07T06:33:43;10.77;;;6.60;;
22191;SDS011;11261;52.456;10.850;2023-05-07T06:36:12;9.20;;;6.75;;
22191;SDS011;11261;52.456;10.850;2023-05-07T06:38:40;10.63;;;7.38;;
22191;SDS011;11261;52.456;10.850;2023-05-07T06:41:09;9.88;;;7.10;;
22191;SDS011;11261;52.456;10.850;2023-05-07T06:43:37;12.05;;;8.15;;
22191;SDS011;11261;52.456;10.850;2023-05-07T06:46:06;10.93;;;8.60;;
22191;SDS011;11261;52.456;10.850;2023-05-07T06:48:35;10.45;;;8.18;;
22191;SDS011;11261;52.456;10.850;2023-05-07T06:51:04;10.82;;;7.95;;
22191;SDS011;11261;52.456;10.850;2023-05-07T06:53:33;9.73;;;7.05;;
22191;SDS011;11261;52.456;10.850;2023-05-07T06:56:02;9.63;;;7.50;;
22191;SDS011;11261;52.456;10.850;2023-05-07T06:58:30;10.57;;;7.57;;
22191;SDS011;11261;52.456;10.850;2023-05-07T07:00:58;10.88;;;7.97;;
22191;SDS011;11261;52.456;10.850;2023-05-07T07:03:26;12.00;;;8.55;;
22191;SDS011;11261;52.456;10.850;2023-05-07T07:05:54;12.55;;;7.55;;
22191;SDS011;11261;52.456;10.850;2023-05-07T07:08:24;10.43;;;8.00;;
22191;SDS011;11261;52.456;10.850;2023-05-07T07:10:52;12.38;;;7.90;;
22191;SDS011;11261;52.456;10.850;2023-05-07T07:13:21;12.65;;;8.25;;
22191;SDS011;11261;52.456;10.850;2023-05-07T07:15:49;11.23;;;7.57;;
22191;SDS011;11261;52.456;10.850;2023-05-07T07:18:17;11.35;;;7.07;;
22191;SDS011;11261;52.456;10.850;2023-05-07T07:20:46;11.45;;;7.43;;
22191;SDS011;11261;52.456;10.850;2023-05-07T07:23:15;10.63;;;7.35;;
22191;SDS011;11261;52.456;10.850;2023-05-07T07:25:45;9.07;;;6.72;;
22191;SDS011;11261;52.456;10.850;2023-05-07T07:28:13;9.77;;;6.82;;
22191;SDS011;11261;52.456;10.850;2023-05-07T07:30:42;8.48;;;6.45;;
22191;SDS011;11261;52.456;10.850;2023-05-07T07:33:10;9.05;;;7.03;;
22191;SDS011;11261;52.456;10.850;2023-05-07T07:35:38;8.52;;;7.15;;
22191;SDS011;11261;52.456;10.850;2023-05-07T07:38:06;8.43;;;6.47;;
22191;SDS011;11261;52.456;10.850;2023-05-07T07:40:35;7.60;;;5.65;;
22191;SDS011;11261;52.456;10.850;2023-05-07T07:43:04;7.70;;;6.32;;
22191;SDS011;11261;52.456;10.850;2023-05-07T07:45:33;8.50;;;5.28;;
22191;SDS011;11261;52.456;10.850;2023-05-07T07:48:01;8.48;;;6.03;;
22191;SDS011;11261;52.456;10.850;2023-05-07T07:50:30;8.20;;;5.68;;
22191;SDS011;11261;52.456;10.850;2023-05-07T07:53:10;8.57;;;6.18;;
22191;SDS011;11261;52.456;10.850;2023-05-07T07:55:38;8.15;;;7.20;;
22191;SDS011;11261;52.456;10.850;2023-05-07T07:58:08;5.38;;;4.70;;
22191;SDS011;11261;52.456;10.850;2023-05-07T08:00:36;10.02;;;5.72;;
22191;SDS011;11261;52.456;10.850;2023-05-07T08:03:04;7.45;;;5.68;;
22191;SDS011;11261;52.456;10.850;2023-05-07T08:05:34;6.95;;;5.32;;
22191;SDS011;11261;52.456;10.850;2023-05-07T08:08:02;6.07;;;5.32;;
22191;SDS011;11261;52.456;10.850;2023-05-07T08:10:32;7.55;;;5.13;;
22191;SDS011;11261;52.456;10.850;2023-05-07T08:13:04;8.40;;;5.38;;
22191;SDS011;11261;52.456;10.850;2023-05-07T08:15:35;6.55;;;4.82;;
22191;SDS011;11261;52.456;10.850;2023-05-07T08:18:03;7.13;;;5.85;;
22191;SDS011;11261;52.456;10.850;2023-05-07T08:20:32;7.65;;;5.85;;
22191;SDS011;11261;52.456;10.850;2023-05-07T08:23:05;7.43;;;5.45;;
22191;SDS011;11261;52.456;10.850;2023-05-07T08:25:34;5.20;;;4.00;;
22191;SDS011;11261;52.456;10.850;2023-05-07T08:28:02;6.57;;;4.97;;
22191;SDS011;11261;52.456;10.850;2023-05-07T08:30:32;5.95;;;5.03;;
22191;SDS011;11261;52.456;10.850;2023-05-07T08:33:02;6.68;;;4.13;;
22191;SDS011;11261;52.456;10.850;2023-05-07T08:35:30;6.28;;;4.93;;
22191;SDS011;11261;52.456;10.850;2023-05-07T08:37:59;6.07;;;4.57;;
22191;SDS011;11261;52.456;10.850;2023-05-07T08:40:27;5.50;;;4.57;;
22191;SDS011;11261;52.456;10.850;2023-05-07T08:42:56;6.15;;;4.60;;
22191;SDS011;11261;52.456;10.850;2023-05-07T08:45:25;5.70;;;4.65;;
22191;SDS011;11261;52.456;10.850;2023-05-07T08:47:57;6.65;;;5.10;;
22191;SDS011;11261;52.456;10.850;2023-05-07T08:50:28;6.63;;;4.78;;
22191;SDS011;11261;52.456;10.850;2023-05-07T08:52:57;5.57;;;4.25;;
22191;SDS011;11261;52.456;10.850;2023-05-07T08:55:26;6.47;;;5.65;;
22191;SDS011;11261;52.456;10.850;2023-05-07T08:57:56;9.00;;;5.55;;
22191;SDS011;11261;52.456;10.850;2023-05-07T09:00:25;7.35;;;4.20;;
22191;SDS011;11261;52.456;10.850;2023-05-07T09:02:53;5.78;;;5.18;;
22191;SDS011;11261;52.456;10.850;2023-05-07T09:05:21;6.30;;;4.90;;
22191;SDS011;11261;52.456;10.850;2023-05-07T09:07:51;6.82;;;5.65;;
22191;SDS011;11261;52.456;10.850;2023-05-07T09:10:20;5.97;;;4.38;;
22191;SDS011;11261;52.456;10.850;2023-05-07T09:12:49;7.25;;;4.75;;
22191;SDS011;11261;52.456;10.850;2023-05-07T09:15:18;6.35;;;5.40;;
22191;SDS011;11261;52.456;10.850;2023-05-07T09:17:46;8.15;;;6.32;;
22191;SDS011;11261;52.456;10.850;2023-05-07T09:20:15;6.93;;;5.07;;
22191;SDS011;11261;52.456;10.850;2023-05-07T09:22:44;7.10;;;5.50;;
22191;SDS011;11261;52.456;10.850;2023-05-07T09:25:14;7.85;;;5.75;;
22191;SDS011;11261;52.456;10.850;2023-05-07T09:27:42;8.32;;;6.45;;
22191;SDS011;11261;52.456;10.850;2023-05-07T09:30:11;8.43;;;6.00;;
22191;SDS011;11261;52.456;10.850;2023-05-07T09:32:39;8.02;;;6.03;;
22191;SDS011;11261;52.456;10.850;2023-05-07T09:35:14;8.13;;;5.95;;
22191;SDS011;11261;52.456;10.850;2023-05-07T09:37:43;7.85;;;5.50;;
22191;SDS011;11261;52.456;10.850;2023-05-07T09:40:21;7.70;;;5.78;;
22191;SDS011;11261;52.456;10.850;2023-05-07T09:42:49;9.48;;;7.38;;
22191;SDS011;11261;52.456;10.850;2023-05-07T09:45:21;7.55;;;6.85;;
22191;SDS011;11261;52.456;10.850;2023-05-07T09:47:53;7.13;;;6.18;;
22191;SDS011;11261;52.456;10.850;2023-05-07T09:50:24;7.35;;;6.55;;
22191;SDS011;11261;52.456;10.850;2023-05-07T09:52:55;7.55;;;5.55;;
22191;SDS011;11261;52.456;10.850;2023-05-07T09:55:26;7.85;;;5.00;;
22191;SDS011;11261;52.456;10.850;2023-05-07T09:57:55;8.02;;;6.18;;
22191;SDS011;11261;52.456;10.850;2023-05-07T10:00:25;6.70;;;5.32;;
22191;SDS011;11261;52.456;10.850;2023-05-07T10:02:54;6.60;;;5.93;;
22191;SDS011;11261;52.456;10.850;2023-05-07T10:05:25;6.85;;;5.18;;
22191;SDS011;11261;52.456;10.850;2023-05-07T10:07:54;6.43;;;4.85;;
22191;SDS011;11261;52.456;10.850;2023-05-07T10:10:23;6.07;;;5.25;;
22191;SDS011;11261;52.456;10.850;2023-05-07T10:12:53;6.53;;;5.30;;
22191;SDS011;11261;52.456;10.850;2023-05-07T10:15:22;8.48;;;6.55;;
22191;SDS011;11261;52.456;10.850;2023-05-07T10:17:51;8.90;;;5.28;;
22191;SDS011;11261;52.456;10.850;2023-05-07T10:20:22;6.68;;;5.38;;
22191;SDS011;11261;52.456;10.850;2023-05-07T10:22:50;7.13;;;5.20;;
22191;SDS011;11261;52.456;10.850;2023-05-07T10:25:22;10.02;;;5.80;;
22191;SDS011;11261;52.456;10.850;2023-05-07T10:27:55;9.68;;;6.30;;
22191;SDS011;11261;52.456;10.850;2023-05-07T10:30:26;7.45;;;6.38;;
22191;SDS011;11261;52.456;10.850;2023-05-07T10:33:04;8.30;;;6.72;;
22191;SDS011;11261;52.456;10.850;2023-05-07T10:35:37;7.15;;;6.22;;
22191;SDS011;11261;52.456;10.850;2023-05-07T10:38:07;7.35;;;6.55;;
22191;SDS011;11261;52.456;10.850;2023-05-07T10:40:36;8.02;;;6.30;;
22191;SDS011;11261;52.456;10.850;2023-05-07T10:43:06;7.18;;;6.47;;
22191;SDS011;11261;52.456;10.850;2023-05-07T10:45:36;6.50;;;5.85;;
22191;SDS011;11261;52.456;10.850;2023-05-07T10:48:08;7.65;;;5.88;;
22191;SDS011;11261;52.456;10.850;2023-05-07T10:51:17;7.47;;;6.70;;
22191;SDS011;11261;52.456;10.850;2023-05-07T10:53:47;10.73;;;5.05;;
22191;SDS011;11261;52.456;10.850;2023-05-07T10:56:25;6.93;;;6.20;;
22191;SDS011;11261;52.456;10.850;2023-05-07T10:58:55;9.88;;;5.95;;
22191;SDS011;11261;52.456;10.850;2023-05-07T11:01:58;6.90;;;6.20;;
22191;SDS011;11261;52.456;10.850;2023-05-07T11:04:30;7.25;;;6.07;;
22191;SDS011;11261;52.456;10.850;2023-05-07T11:07:15;8.75;;;5.40;;
22191;SDS011;11261;52.456;10.850;2023-05-07T11:09:55;7.75;;;5.53;;
22191;SDS011;11261;52.456;10.850;2023-05-07T11:15:37;6.32;;;4.95;;
22191;SDS011;11261;52.456;10.850;2023-05-07T11:18:11;7.00;;;5.55;;
22191;SDS011;11261;52.456;10.850;2023-05-07T11:20:44;6.05;;;5.15;;
22191;SDS011;11261;52.456;10.850;2023-05-07T11:26:26;5.53;;;3.97;;
22191;SDS011;11261;52.456;10.850;2023-05-07T11:28:57;7.15;;;4.15;;
22191;SDS011;11261;52.456;10.850;2023-05-07T11:31:28;5.85;;;4.38;;
22191;SDS011;11261;52.456;10.850;2023-05-07T11:33:56;5.50;;;4.72;;
22191;SDS011;11261;52.456;10.850;2023-05-07T11:36:25;6.65;;;5.18;;
22191;SDS011;11261;52.456;10.850;2023-05-07T11:38:59;6.22;;;4.80;;
22191;SDS011;11261;52.456;10.850;2023-05-07T11:41:33;5.68;;;4.60;;
22191;SDS011;11261;52.456;10.850;2023-05-07T11:44:03;6.15;;;4.43;;
22191;SDS011;11261;52.456;10.850;2023-05-07T11:46:33;5.63;;;4.72;;
22191;SDS011;11261;52.456;10.850;2023-05-07T11:49:01;7.70;;;5.03;;
22191;SDS011;11261;52.456;10.850;2023-05-07T11:51:29;7.20;;;4.35;;
22191;SDS011;11261;52.456;10.850;2023-05-07T11:53:58;5.78;;;4.28;;
22191;SDS011;11261;52.456;10.850;2023-05-07T11:56:26;6.57;;;4.00;;
22191;SDS011;11261;52.456;10.850;2023-05-07T11:58:54;7.93;;;5.25;;
22191;SDS011;11261;52.456;10.850;2023-05-07T12:01:22;7.22;;;4.70;;
22191;SDS011;11261;52.456;10.850;2023-05-07T12:03:52;5.10;;;4.45;;
22191;SDS011;11261;52.456;10.850;2023-05-07T12:06:20;5.95;;;5.25;;
22191;SDS011;11261;52.456;10.850;2023-05-07T12:08:48;5.85;;;5.00;;
22191;SDS011;11261;52.456;10.850;2023-05-07T12:11:21;6.28;;;5.20;;
22191;SDS011;11261;52.456;10.850;2023-05-07T12:13:51;6.05;;;5.05;;
22191;SDS011;11261;52.456;10.850;2023-05-07T12:16:24;5.55;;;5.03;;
22191;SDS011;11261;52.456;10.850;2023-05-07T12:18:54;5.72;;;4.40;;
22191;SDS011;11261;52.456;10.850;2023-05-07T12:21:26;6.22;;;4.35;;
22191;SDS011;11261;52.456;10.850;2023-05-07T12:23:54;5.47;;;4.47;;
22191;SDS011;11261;52.456;10.850;2023-05-07T12:26:23;5.70;;;4.07;;
22191;SDS011;11261;52.456;10.850;2023-05-07T12:28:52;5.43;;;4.13;;
22191;SDS011;11261;52.456;10.850;2023-05-07T12:31:20;5.75;;;4.07;;
22191;SDS011;11261;52.456;10.850;2023-05-07T12:33:48;5.47;;;3.80;;
22191;SDS011;11261;52.456;10.850;2023-05-07T12:36:19;6.57;;;4.32;;
22191;SDS011;11261;52.456;10.850;2023-05-07T12:38:49;7.88;;;4.78;;
22191;SDS011;11261;52.456;10.850;2023-05-07T12:41:17;5.32;;;3.88;;
22191;SDS011;11261;52.456;10.850;2023-05-07T12:43:52;6.60;;;4.07;;
22191;SDS011;11261;52.456;10.850;2023-05-07T12:46:24;5.15;;;4.03;;
22191;SDS011;11261;52.456;10.850;2023-05-07T12:48:52;5.03;;;3.53;;
22191;SDS011;11261;52.456;10.850;2023-05-07T12:51:23;5.07;;;4.57;;
22191;SDS011;11261;52.456;10.850;2023-05-07T12:53:51;4.18;;;3.47;;
22191;SDS011;11261;52.456;10.850;2023-05-07T12:56:24;5.28;;;4.30;;
22191;SDS011;11261;52.456;10.850;2023-05-07T12:58:56;5.90;;;4.28;;
22191;SDS011;11261;52.456;10.850;2023-05-07T13:01:28;5.22;;;3.80;;
22191;SDS011;11261;52.456;10.850;2023-05-07T13:04:00;5.20;;;3.95;;
22191;SDS011;11261;52.456;10.850;2023-05-07T13:06:32;5.78;;;3.22;;
22191;SDS011;11261;52.456;10.850;2023-05-07T13:09:00;5.40;;;3.97;;
22191;SDS011;11261;52.456;10.850;2023-05-07T13:11:29;6.72;;;3.63;;
22191;SDS011;11261;52.456;10.850;2023-05-07T13:13:57;4.35;;;3.95;;
22191;SDS011;11261;52.456;10.850;2023-05-07T13:16:25;3.42;;;2.65;;
22191;SDS011;11261;52.456;10.850;2023-05-07T13:18:54;5.57;;;3.50;;
22191;SDS011;11261;52.456;10.850;2023-05-07T13:21:22;5.30;;;4.03;;
22191;SDS011;11261;52.456;10.850;2023-05-07T13:23:52;3.92;;;3.03;;
22191;SDS011;11261;52.456;10.850;2023-05-07T13:26:21;4.10;;;2.90;;
22191;SDS011;11261;52.456;10.850;2023-05-07T13:28:52;4.20;;;3.22;;
22191;SDS011;11261;52.456;10.850;2023-05-07T13:31:21;4.10;;;3.70;;
22191;SDS011;11261;52.456;10.850;2023-05-07T13:33:49;4.85;;;3.22;;
22191;SDS011;11261;52.456;10.850;2023-05-07T13:36:19;5.00;;;3.80;;
22191;SDS011;11261;52.456;10.850;2023-05-07T13:38:47;4.18;;;3.08;;
22191;SDS011;11261;52.456;10.850;2023-05-07T13:41:18;4.63;;;2.85;;
22191;SDS011;11261;52.456;10.850;2023-05-07T13:43:46;3.33;;;3.00;;
22191;SDS011;11261;52.456;10.850;2023-05-07T13:46:15;4.47;;;2.80;;
22191;SDS011;11261;52.456;10.850;2023-05-07T13:48:43;3.30;;;3.00;;
22191;SDS011;11261;52.456;10.850;2023-05-07T13:51:12;3.72;;;3.38;;
22191;SDS011;11261;52.456;10.850;2023-05-07T13:53:41;7.95;;;3.17;;
22191;SDS011;11261;52.456;10.850;2023-05-07T13:56:09;3.15;;;2.53;;
22191;SDS011;11261;52.456;10.850;2023-05-07T13:58:39;3.67;;;3.30;;
22191;SDS011;11261;52.456;10.850;2023-05-07T14:01:24;3.83;;;3.53;;
22191;SDS011;11261;52.456;10.850;2023-05-07T14:03:53;3.85;;;3.45;;
22191;SDS011;11261;52.456;10.850;2023-05-07T14:06:22;3.22;;;2.90;;
22191;SDS011;11261;52.456;10.850;2023-05-07T14:08:50;4.18;;;2.60;;
22191;SDS011;11261;52.456;10.850;2023-05-07T14:11:19;3.13;;;2.83;;
22191;SDS011;11261;52.456;10.850;2023-05-07T14:13:49;3.38;;;2.80;;
22191;SDS011;11261;52.456;10.850;2023-05-07T14:16:17;3.47;;;2.47;;
22191;SDS011;11261;52.456;10.850;2023-05-07T14:18:45;4.63;;;2.70;;
22191;SDS011;11261;52.456;10.850;2023-05-07T14:21:14;5.40;;;3.20;;
22191;SDS011;11261;52.456;10.850;2023-05-07T14:23:42;3.90;;;2.63;;
22191;SDS011;11261;52.456;10.850;2023-05-07T14:26:10;3.80;;;2.95;;
22191;SDS011;11261;52.456;10.850;2023-05-07T14:28:39;3.50;;;3.20;;
22191;SDS011;11261;52.456;10.850;2023-05-07T14:31:14;4.25;;;3.40;;
22191;SDS011;11261;52.456;10.850;2023-05-07T14:33:42;4.82;;;3.38;;
22191;SDS011;11261;52.456;10.850;2023-05-07T14:36:10;3.45;;;2.70;;
22191;SDS011;11261;52.456;10.850;2023-05-07T14:38:39;2.95;;;2.67;;
22191;SDS011;11261;52.456;10.850;2023-05-07T14:41:07;3.42;;;3.00;;
22191;SDS011;11261;52.456;10.850;2023-05-07T14:43:35;4.35;;;3.17;;
22191;SDS011;11261;52.456;10.850;2023-05-07T14:46:04;3.75;;;2.85;;
22191;SDS011;11261;52.456;10.850;2023-05-07T14:48:34;3.38;;;3.08;;
22191;SDS011;11261;52.456;10.850;2023-05-07T14:51:02;2.67;;;2.47;;